Time,TemperatureF,DewpointF,PressureIn,WindDirection,WindDirectionDegrees,WindSpeedMPH,WindSpeedGustMPH,Humidity,HourlyPrecipIn,Conditions,Clouds,dailyrainin,SoftwareType,DateUTC
2013-04-03 00:14:00,34.5,23.2,30.11,ESE,112,5.8,-999.0,63,-99.99,,,0.00,Acu-Link.com,2013-04-03 05:14:00,
2013-04-03 00:29:00,35.2,23.1,30.12,ESE,112,7.3,-999.0,61,-99.99,,,0.00,Acu-Link.com,2013-04-03 05:29:00,
2013-04-03 00:44:00,34.2,22.9,30.11,ESE,112,6.8,-999.0,63,-99.99,,,0.00,Acu-Link.com,2013-04-03 05:44:00,
2013-04-03 00:59:00,32.9,22.4,30.12,ESE,112,4.7,-999.0,65,-99.99,,,0.00,Acu-Link.com,2013-04-03 05:59:00,
2013-04-03 01:14:00,31.6,22.3,30.12,ESE,112,4.7,-999.0,68,-99.99,,,0.00,Acu-Link.com,2013-04-03 06:14:00,
2013-04-03 01:30:00,31.5,22.2,30.12,ESE,112,5.3,-999.0,68,-99.99,,,0.00,Acu-Link.com,2013-04-03 06:30:00,
2013-04-03 01:45:00,31.5,22.2,30.13,East,90,5.8,-999.0,68,-99.99,,,0.00,Acu-Link.com,2013-04-03 06:45:00,
2013-04-03 02:00:00,30.2,21.6,30.14,ESE,112,4.7,-999.0,70,-99.99,,,0.00,Acu-Link.com,2013-04-03 07:00:00,
2013-04-03 02:15:00,29.8,21.6,30.13,ESE,112,4.2,-999.0,71,-99.99,,,0.00,Acu-Link.com,2013-04-03 07:15:00,
2013-04-03 02:30:00,29.3,21.4,30.13,ESE,112,4.2,-999.0,72,-99.99,,,0.00,Acu-Link.com,2013-04-03 07:30:00,
2013-04-03 02:45:00,29.3,21.4,30.13,ESE,112,5.3,-999.0,72,-99.99,,,0.00,Acu-Link.com,2013-04-03 07:45:00,
2013-04-03 03:00:00,29.3,21.4,30.13,ESE,112,5.3,-999.0,72,-99.99,,,0.00,Acu-Link.com,2013-04-03 08:00:00,
2013-04-03 03:16:00,29.3,21.4,30.13,ESE,112,6.3,-999.0,72,-99.99,,,0.00,Acu-Link.com,2013-04-03 08:16:00,
2013-04-03 03:32:00,29.3,21.4,30.14,SE,135,4.7,-999.0,72,-99.99,,,0.00,Acu-Link.com,2013-04-03 08:32:00,
2013-04-03 03:47:00,29.3,21.4,30.14,ESE,112,4.7,-999.0,72,-99.99,,,0.00,Acu-Link.com,2013-04-03 08:47:00,
2013-04-03 04:02:00,28.9,21.7,30.14,ESE,112,4.7,-999.0,74,-99.99,,,0.00,Acu-Link.com,2013-04-03 09:02:00,
2013-04-03 04:17:00,28.8,21.6,30.14,SSE,157,3.7,-999.0,74,-99.99,,,0.00,Acu-Link.com,2013-04-03 09:17:00,
2013-04-03 04:32:00,28.6,21.4,30.13,ESE,112,4.7,-999.0,74,-99.99,,,0.00,Acu-Link.com,2013-04-03 09:32:00,
2013-04-03 04:47:00,28.4,21.5,30.14,SE,135,4.2,-999.0,75,-99.99,,,0.00,Acu-Link.com,2013-04-03 09:47:00,
2013-04-03 05:02:00,28.0,21.1,30.15,SSE,157,3.7,-999.0,75,-99.99,,,0.00,Acu-Link.com,2013-04-03 10:02:00,
2013-04-03 05:18:00,27.3,21.1,30.15,ESE,112,4.7,-999.0,77,-99.99,,,0.00,Acu-Link.com,2013-04-03 10:18:00,
2013-04-03 05:33:00,27.5,21.3,30.15,ESE,112,4.2,-999.0,77,-99.99,,,0.00,Acu-Link.com,2013-04-03 10:33:00,
2013-04-03 05:48:00,27.3,21.1,30.16,ESE,112,4.2,-999.0,77,-99.99,,,0.00,Acu-Link.com,2013-04-03 10:48:00,
2013-04-03 06:03:00,27.1,21.2,30.16,SE,135,3.2,-999.0,78,-99.99,,,0.00,Acu-Link.com,2013-04-03 11:03:00,
2013-04-03 06:18:00,27.1,21.2,30.16,ESE,112,2.7,-999.0,78,-99.99,,,0.00,Acu-Link.com,2013-04-03 11:18:00,
2013-04-03 06:34:00,26.8,21.2,30.17,South,180,1.7,-999.0,79,-99.99,,,0.00,Acu-Link.com,2013-04-03 11:34:00,
2013-04-03 06:49:00,26.6,21.0,30.18,SE,135,1.7,-999.0,79,-99.99,,,0.00,Acu-Link.com,2013-04-03 11:49:00,
2013-04-03 07:04:00,26.4,20.8,30.17,SSE,157,1.7,-999.0,79,-99.99,,,0.00,Acu-Link.com,2013-04-03 12:04:00,
2013-04-03 07:20:00,26.6,21.3,30.17,ESE,112,2.2,-999.0,80,-99.99,,,0.00,Acu-Link.com,2013-04-03 12:20:00,
2013-04-03 07:35:00,27.1,21.5,30.18,ESE,112,1.7,-999.0,79,-99.99,,,0.00,Acu-Link.com,2013-04-03 12:35:00,
2013-04-03 07:50:00,27.9,21.6,30.17,ESE,112,2.7,-999.0,77,-99.99,,,0.00,Acu-Link.com,2013-04-03 12:50:00,
2013-04-03 08:06:00,28.4,22.4,30.18,ESE,112,1.7,-999.0,78,-99.99,,,0.00,Acu-Link.com,2013-04-03 13:06:00,
2013-04-03 08:36:00,31.1,23.5,30.18,SSE,157,1.7,-999.0,73,-99.99,,,0.00,Acu-Link.com,2013-04-03 13:36:00,
2013-04-03 08:51:00,32.2,24.5,30.18,ESE,112,3.7,-999.0,73,-99.99,,,0.00,Acu-Link.com,2013-04-03 13:51:00,
2013-04-03 09:22:00,34.0,25.3,30.19,ESE,112,4.2,-999.0,70,-99.99,,,0.00,Acu-Link.com,2013-04-03 14:22:00,
2013-04-03 09:37:00,35.8,26.3,30.19,SSE,157,6.8,-999.0,68,-99.99,,,0.00,Acu-Link.com,2013-04-03 14:37:00,
2013-04-03 09:52:00,37.6,26.9,30.18,SE,135,7.3,-999.0,65,-99.99,,,0.00,Acu-Link.com,2013-04-03 14:52:00,
2013-04-03 10:07:00,39.0,25.9,30.18,SSE,157,7.8,-999.0,59,-99.99,,,0.00,Acu-Link.com,2013-04-03 15:07:00,
2013-04-03 10:22:00,41.0,26.1,30.19,East,90,13.5,-999.0,55,-99.99,,,0.00,Acu-Link.com,2013-04-03 15:22:00,
2013-04-03 10:37:00,41.5,26.1,30.19,SE,135,7.8,-999.0,54,-99.99,,,0.00,Acu-Link.com,2013-04-03 15:37:00,
2013-04-03 10:53:00,42.3,26.4,30.20,South,180,15.5,-999.0,53,-99.99,,,0.00,Acu-Link.com,2013-04-03 15:53:00,
2013-04-03 11:08:00,43.3,26.4,30.19,SSE,157,9.4,-999.0,51,-99.99,,,0.00,Acu-Link.com,2013-04-03 16:08:00,
2013-04-03 11:23:00,44.1,26.7,30.18,SSW,202,8.9,-999.0,50,-99.99,,,0.00,Acu-Link.com,2013-04-03 16:23:00,
2013-04-03 11:39:00,46.2,27.6,30.18,South,180,8.9,-999.0,48,-99.99,,,0.00,Acu-Link.com,2013-04-03 16:39:00,
2013-04-03 11:54:00,48.9,28.5,30.18,SSW,202,7.3,-999.0,45,-99.99,,,0.00,Acu-Link.com,2013-04-03 16:54:00,
2013-04-03 12:09:00,48.4,26.4,30.17,SSE,157,13.5,-999.0,42,-99.99,,,0.00,Acu-Link.com,2013-04-03 17:09:00,
2013-04-03 12:24:00,49.5,26.2,30.16,ESE,112,5.8,-999.0,40,-99.99,,,0.00,Acu-Link.com,2013-04-03 17:24:00,
2013-04-03 12:39:00,50.5,25.9,30.16,ESE,112,6.3,-999.0,38,-99.99,,,0.00,Acu-Link.com,2013-04-03 17:39:00,
2013-04-03 12:55:00,51.4,26.0,30.15,South,180,5.8,-999.0,37,-99.99,,,0.00,Acu-Link.com,2013-04-03 17:55:00,
2013-04-03 13:10:00,52.7,25.8,30.14,South,180,7.3,-999.0,35,-99.99,,,0.00,Acu-Link.com,2013-04-03 18:10:00,
2013-04-03 13:25:00,53.6,26.6,30.13,SSE,157,8.3,-999.0,35,-99.99,,,0.00,Acu-Link.com,2013-04-03 18:25:00,
2013-04-03 13:40:00,53.4,26.4,30.13,SW,225,5.8,-999.0,35,-99.99,,,0.00,Acu-Link.com,2013-04-03 18:40:00,
2013-04-03 13:55:00,54.0,26.3,30.13,South,180,6.8,-999.0,34,-99.99,,,0.00,Acu-Link.com,2013-04-03 18:55:00,
2013-04-03 14:26:00,53.1,25.5,30.11,South,180,6.3,-999.0,34,-99.99,,,0.00,Acu-Link.com,2013-04-03 19:26:00,
2013-04-03 15:12:00,53.4,26.4,30.10,SSE,157,10.4,-999.0,35,-99.99,,,0.00,Acu-Link.com,2013-04-03 20:12:00,
2013-04-03 15:27:00,53.8,26.8,30.10,SSE,157,8.3,-999.0,35,-99.99,,,0.00,Acu-Link.com,2013-04-03 20:27:00,
2013-04-03 15:42:00,53.2,26.3,30.10,South,180,8.3,-999.0,35,-99.99,,,0.00,Acu-Link.com,2013-04-03 20:42:00,
2013-04-03 15:57:00,53.4,27.1,30.09,WSW,247,8.3,-999.0,36,-99.99,,,0.00,Acu-Link.com,2013-04-03 20:57:00,
2013-04-03 16:12:00,54.7,27.6,30.09,ESE,112,8.9,-999.0,35,-99.99,,,0.00,Acu-Link.com,2013-04-03 21:12:00,
2013-04-03 16:27:00,54.0,27.0,30.09,South,180,4.7,-999.0,35,-99.99,,,0.00,Acu-Link.com,2013-04-03 21:27:00,
2013-04-03 16:42:00,54.3,27.2,30.08,SSE,157,7.3,-999.0,35,-99.99,,,0.00,Acu-Link.com,2013-04-03 21:42:00,
2013-04-03 16:58:00,53.2,26.3,30.07,SSW,202,5.8,-999.0,35,-99.99,,,0.00,Acu-Link.com,2013-04-03 21:58:00,
2013-04-03 17:13:00,52.3,26.2,30.07,SSE,157,7.8,-999.0,36,-99.99,,,0.00,Acu-Link.com,2013-04-03 22:13:00,
2013-04-03 17:28:00,53.6,26.6,30.06,SSE,157,8.3,-999.0,35,-99.99,,,0.00,Acu-Link.com,2013-04-03 22:28:00,
2013-04-03 17:43:00,54.3,26.5,30.06,ESE,112,8.9,-999.0,34,-99.99,,,0.00,Acu-Link.com,2013-04-03 22:43:00,
2013-04-03 17:58:00,54.3,25.8,30.06,SSE,157,9.4,-999.0,33,-99.99,,,0.00,Acu-Link.com,2013-04-03 22:58:00,
2013-04-03 18:14:00,54.0,26.3,30.06,South,180,7.8,-999.0,34,-99.99,,,0.00,Acu-Link.com,2013-04-03 23:14:00,
2013-04-03 18:29:00,53.6,26.6,30.06,SW,225,4.2,-999.0,35,-99.99,,,0.00,Acu-Link.com,2013-04-03 23:29:00,
2013-04-03 18:44:00,52.2,26.1,30.05,South,180,6.3,-999.0,36,-99.99,,,0.00,Acu-Link.com,2013-04-03 23:44:00,
2013-04-03 19:15:00,51.8,26.4,30.06,SSW,202,7.8,-999.0,37,-99.99,,,0.00,Acu-Link.com,2013-04-04 00:15:00,
2013-04-03 19:30:00,50.4,26.4,30.06,ESE,112,5.3,-999.0,39,-99.99,,,0.00,Acu-Link.com,2013-04-04 00:30:00,
2013-04-03 19:45:00,48.2,26.2,30.06,SSE,157,6.8,-999.0,42,-99.99,,,0.00,Acu-Link.com,2013-04-04 00:45:00,
2013-04-03 20:00:00,46.4,26.2,30.06,ESE,112,5.3,-999.0,45,-99.99,,,0.00,Acu-Link.com,2013-04-04 01:00:00,
2013-04-03 20:16:00,45.5,25.4,30.06,SSE,157,5.8,-999.0,45,-99.99,,,0.00,Acu-Link.com,2013-04-04 01:16:00,
2013-04-03 20:31:00,44.8,25.3,30.06,South,180,4.7,-999.0,46,-99.99,,,0.00,Acu-Link.com,2013-04-04 01:31:00,
2013-04-03 20:46:00,44.8,25.8,30.06,South,180,5.8,-999.0,47,-99.99,,,0.00,Acu-Link.com,2013-04-04 01:46:00,
2013-04-03 21:01:00,43.9,25.0,30.07,SSE,157,7.3,-999.0,47,-99.99,,,0.00,Acu-Link.com,2013-04-04 02:01:00,
2013-04-03 21:17:00,43.7,25.8,30.07,South,180,5.8,-999.0,49,-99.99,,,0.00,Acu-Link.com,2013-04-04 02:17:00,
2013-04-03 21:32:00,42.3,25.5,30.08,SSE,157,7.3,-999.0,51,-99.99,,,0.00,Acu-Link.com,2013-04-04 02:32:00,
2013-04-03 21:47:00,41.4,25.1,30.07,South,180,7.3,-999.0,52,-99.99,,,0.00,Acu-Link.com,2013-04-04 02:47:00,
2013-04-03 22:02:00,40.5,24.7,30.08,South,180,7.3,-999.0,53,-99.99,,,0.00,Acu-Link.com,2013-04-04 03:02:00,
2013-04-03 22:17:00,40.1,24.8,30.08,SE,135,7.8,-999.0,54,-99.99,,,0.00,Acu-Link.com,2013-04-04 03:17:00,
2013-04-03 22:32:00,38.8,24.9,30.07,South,180,6.3,-999.0,57,-99.99,,,0.00,Acu-Link.com,2013-04-04 03:32:00,
2013-04-03 22:48:00,39.6,25.2,30.07,South,180,6.8,-999.0,56,-99.99,,,0.00,Acu-Link.com,2013-04-04 03:48:00,
2013-04-03 23:03:00,38.8,24.9,30.07,SSW,202,6.3,-999.0,57,-99.99,,,0.00,Acu-Link.com,2013-04-04 04:03:00,
2013-04-03 23:18:00,38.8,24.9,30.07,SSE,157,6.8,-999.0,57,-99.99,,,0.00,Acu-Link.com,2013-04-04 04:18:00,
2013-04-03 23:33:00,37.0,25.2,30.07,SSW,202,4.2,-999.0,62,-99.99,,,0.00,Acu-Link.com,2013-04-04 04:33:00,